Time;durP1;ratioP1;P1;durP2;ratioP2;P2;SDS_P1;SDS_P2;PMS_P1;PMS_P2;Temp;Humidity;BMP_temperature;BMP_pressure;BME280_temperature;BME280_humidity;BME280_pressure;Samples;Min_cycle;Max_cycle;Signal;HPM_P1;HPM_P2
2023/05/11 00:00:03;;;;;;;5.07;2.77;;;;;;;12.79;62.04;99479.78;6186090;23;20479;-91
2023/05/11 00:02:28;;;;;;;4.67;2.43;;;;;;;12.71;62.24;99488.13;6185999;23;20181;-91
2023/05/11 00:04:54;;;;;;;8.33;4.10;;;;;;;12.72;61.97;99483.72;6159641;23;20242;-90
2023/05/11 00:07:20;;;;;;;7.27;3.20;;;;;;;12.66;61.69;99482.28;6185631;23;20153;-90
2023/05/11 00:09:45;;;;;;;5.53;2.87;;;;;;;12.60;61.68;99485.25;6185576;23;20149;-90
2023/05/11 00:12:12;;;;;;;5.63;2.90;;;;;;;12.55;61.81;99489.06;6159608;23;20156;-90
2023/05/11 00:14:37;;;;;;;8.00;3.23;;;;;;;12.55;61.87;99489.06;6185490;23;20592;-91
2023/05/11 00:17:03;;;;;;;10.47;3.10;;;;;;;12.62;61.47;99487.78;6185978;23;20177;-91
2023/05/11 00:19:30;;;;;;;4.83;2.43;;;;;;;12.59;61.71;99483.56;6185709;23;20494;-91
2023/05/11 00:21:57;;;;;;;4.07;2.33;;;;;;;12.55;62.12;99492.53;6185877;23;20568;-91
2023/05/11 00:24:23;;;;;;;4.27;2.23;;;;;;;12.55;61.92;99491.69;6185690;23;20691;-91
2023/05/11 00:26:49;;;;;;;4.37;2.60;;;;;;;12.53;61.68;99490.91;6159816;23;20152;-93
2023/05/11 00:29:14;;;;;;;3.20;1.87;;;;;;;12.44;61.93;99502.81;6159623;23;20160;-91
2023/05/11 00:31:40;;;;;;;6.13;3.00;;;;;;;12.35;62.14;99500.66;6186039;23;20158;-91
2023/05/11 00:34:05;;;;;;;5.37;1.83;;;;;;;12.27;62.67;99505.47;6159746;23;20153;-91
2023/05/11 00:36:32;;;;;;;5.50;2.97;;;;;;;12.18;62.35;99495.47;6185388;23;20196;-91
2023/05/11 00:38:57;;;;;;;5.63;2.50;;;;;;;12.19;62.85;99505.03;6185996;23;20217;-90
2023/05/11 00:41:23;;;;;;;5.57;2.50;;;;;;;12.19;62.73;99502.41;6185513;23;20157;-91
2023/05/11 00:43:48;;;;;;;4.30;2.80;;;;;;;12.18;62.49;99505.97;6185286;23;20568;-91
2023/05/11 00:46:14;;;;;;;5.50;2.40;;;;;;;12.17;62.85;99507.75;6185533;23;20164;-90
2023/05/11 00:48:39;;;;;;;4.33;2.27;;;;;;;12.15;62.66;99507.00;6185308;23;20479;-91
2023/05/11 00:51:05;;;;;;;5.70;2.17;;;;;;;12.16;62.40;99506.03;6185859;23;20174;-91
2023/05/11 00:53:31;;;;;;;5.50;2.87;;;;;;;12.16;62.37;99510.44;6159489;23;20578;-91
2023/05/11 00:55:57;;;;;;;4.93;2.10;;;;;;;12.11;62.34;99512.47;6159335;23;20250;-91
2023/05/11 00:58:24;;;;;;;6.13;2.80;;;;;;;12.06;61.95;99515.34;6159208;23;20156;-91
2023/05/11 01:00:50;;;;;;;4.77;2.47;;;;;;;12.00;62.30;99507.78;6185364;23;20153;-91
2023/05/11 01:03:16;;;;;;;7.73;2.70;;;;;;;12.03;62.60;99517.28;6159728;23;20550;-91
2023/05/11 01:05:54;;;;;;;6.67;2.47;;;;;;;12.07;62.48;99513.56;6185697;23;20157;-90
2023/05/11 01:08:41;;;;;;;5.27;2.60;;;;;;;12.08;62.63;99497.72;6159399;23;20163;-91
2023/05/11 01:11:20;;;;;;;6.77;3.37;;;;;;;12.09;62.40;99504.69;6159489;23;20149;-90
2023/05/11 01:13:52;;;;;;;3.77;2.57;;;;;;;12.09;62.78;99498.56;6159540;23;20485;-90
2023/05/11 01:16:25;;;;;;;6.70;3.10;;;;;;;12.06;63.07;99498.72;6159284;23;20208;-91
2023/05/11 01:18:53;;;;;;;7.87;4.30;;;;;;;11.93;63.90;99497.66;6185548;23;20529;-91
2023/05/11 01:21:19;;;;;;;8.37;3.90;;;;;;;11.90;63.92;99496.06;6185355;23;20153;-91
2023/05/11 01:24:11;;;;;;;10.53;3.47;;;;;;;11.85;64.11;99508.59;6159566;23;20575;-91
2023/05/11 01:26:46;;;;;;;12.47;3.80;;;;;;;11.78;64.23;99512.47;6153568;23;20156;-91
2023/05/11 01:29:39;;;;;;;10.33;4.17;;;;;;;11.75;64.04;99512.63;6160096;23;20159;-90
2023/05/11 01:32:13;;;;;;;5.93;2.90;;;;;;;11.74;64.59;99513.53;6185571;23;20265;-91
2023/05/11 01:34:40;;;;;;;4.40;2.47;;;;;;;11.71;64.06;99506.66;6159335;23;20219;-90
2023/05/11 01:37:11;;;;;;;5.00;2.30;;;;;;;11.65;63.83;99506.97;6160119;23;20518;-90
2023/05/11 01:39:46;;;;;;;4.07;2.43;;;;;;;11.54;63.56;99511.03;6159996;23;20251;-90
2023/05/11 01:42:14;;;;;;;4.30;2.50;;;;;;;11.47;63.52;99515.78;6185522;23;20140;-90
2023/05/11 01:44:44;;;;;;;5.30;2.13;;;;;;;11.47;63.04;99510.53;6159731;23;20522;-89
2023/05/11 01:47:12;;;;;;;4.73;2.57;;;;;;;11.51;62.74;99509.44;6159619;23;20157;-90
2023/05/11 01:49:41;;;;;;;6.87;2.67;;;;;;;11.53;62.62;99504.13;6159572;23;20155;-91
2023/05/11 01:52:08;;;;;;;8.13;3.17;;;;;;;11.53;62.30;99504.13;6159584;23;20178;-91
2023/05/11 01:54:37;;;;;;;6.30;3.13;;;;;;;11.41;63.32;99499.47;6159476;23;20179;-91
2023/05/11 01:57:03;;;;;;;6.33;3.37;;;;;;;11.40;63.36;99497.78;6186913;23;20552;-91
2023/05/11 01:59:31;;;;;;;11.13;4.07;;;;;;;11.36;63.91;99488.34;6161095;23;20534;-90
2023/05/11 02:01:57;;;;;;;6.80;3.87;;;;;;;11.34;64.77;99500.72;6161481;23;20535;-90
2023/05/11 02:04:25;;;;;;;9.23;4.50;;;;;;;11.39;65.20;99507.44;6186803;23;20158;-90
2023/05/11 02:06:54;;;;;;;8.87;4.77;;;;;;;11.45;65.85;99496.59;6186862;23;20605;-90
2023/05/11 02:09:21;;;;;;;9.30;5.00;;;;;;;11.48;66.85;99495.59;6161261;23;20157;-91
2023/05/11 02:11:48;;;;;;;7.90;4.07;;;;;;;11.49;67.73;99502.56;6160819;23;20538;-91
2023/05/11 02:14:16;;;;;;;9.63;4.47;;;;;;;11.53;68.21;99494.44;6161239;23;20162;-90
2023/05/11 02:16:43;;;;;;;8.07;4.10;;;;;;;11.57;68.33;99500.41;6160712;23;20471;-90
2023/05/11 02:19:12;;;;;;;11.17;4.57;;;;;;;11.63;68.47;99500.91;6187315;23;20151;-91
2023/05/11 02:21:40;;;;;;;10.67;5.03;;;;;;;11.62;68.97;99490.50;6187073;23;20155;-91
2023/05/11 02:24:06;;;;;;;6.83;3.97;;;;;;;11.65;68.53;99492.97;6186829;23;20175;-89
2023/05/11 02:26:32;;;;;;;6.90;3.70;;;;;;;11.67;69.03;99493.75;6160962;23;20146;-90
2023/05/11 02:28:57;;;;;;;11.90;4.97;;;;;;;11.67;68.98;99491.13;6187195;23;20170;-91
2023/05/11 02:31:27;;;;;;;9.77;4.30;;;;;;;11.59;69.72;99486.25;6186723;23;20147;-90
2023/05/11 02:33:59;;;;;;;7.10;4.47;;;;;;;11.56;69.83;99489.03;6186828;23;20482;-91
2023/05/11 02:36:28;;;;;;;9.13;3.87;;;;;;;11.49;70.43;99503.41;6186801;23;20168;-91
2023/05/11 02:39:00;;;;;;;9.73;4.30;;;;;;;11.52;70.79;99495.38;6160708;23;20154;-90
2023/05/11 02:41:29;;;;;;;6.60;4.13;;;;;;;11.54;70.60;99490.03;6187279;23;20166;-90
2023/05/11 02:43:57;;;;;;;7.63;4.33;;;;;;;11.52;70.92;99492.75;6186393;23;20169;-90
2023/05/11 02:46:30;;;;;;;7.70;4.47;;;;;;;11.60;71.24;99489.75;6186328;23;20603;-90
2023/05/11 02:49:01;;;;;;;6.57;4.03;;;;;;;11.63;71.29;99489.59;6160938;23;20217;-91
2023/05/11 02:51:34;;;;;;;6.70;4.10;;;;;;;11.66;71.20;99490.25;6161036;23;20170;-90
2023/05/11 02:54:01;;;;;;;6.10;3.93;;;;;;;11.69;71.40;99495.41;6160328;23;20559;-90
2023/05/11 02:56:28;;;;;;;10.80;4.30;;;;;;;11.74;71.02;99497.78;6159746;23;20636;-89
2023/05/11 02:58:54;;;;;;;11.17;4.37;;;;;;;11.80;70.92;99501.88;6160492;23;20155;-90
2023/05/11 03:01:22;;;;;;;6.47;3.47;;;;;;;11.84;70.68;99503.41;6159029;23;20158;-91
2023/05/11 03:03:49;;;;;;;7.17;3.77;;;;;;;11.87;70.88;99503.28;6136012;23;20217;-90
2023/05/11 03:06:16;;;;;;;9.10;4.37;;;;;;;11.91;71.30;99505.66;6159999;23;20163;-90
2023/05/11 03:08:42;;;;;;;10.90;3.90;;;;;;;11.96;71.17;99493.13;6161620;23;20234;-90
2023/05/11 03:11:09;;;;;;;10.87;4.50;;;;;;;11.98;71.34;99496.50;6186307;23;20152;-90
2023/05/11 03:13:44;;;;;;;9.80;4.07;;;;;;;12.00;71.20;99499.06;6186523;23;20163;-90
2023/05/11 03:16:12;;;;;;;11.30;4.70;;;;;;;12.04;71.49;99498.81;6161149;23;20181;-90
2023/05/11 03:18:39;;;;;;;15.23;4.53;;;;;;;12.13;70.77;99505.38;6186146;23;20548;-90
2023/05/11 03:21:07;;;;;;;12.27;5.93;;;;;;;12.17;70.63;99505.13;6186162;23;20155;-90
2023/05/11 03:23:35;;;;;;;12.53;4.70;;;;;;;12.25;70.24;99509.97;6186039;23;20211;-90
2023/05/11 03:26:07;;;;;;;12.13;4.17;;;;;;;12.33;69.95;99507.78;6186193;23;20149;-90
2023/05/11 03:28:35;;;;;;;6.33;3.70;;;;;;;12.37;69.78;99504.03;6160195;23;20145;-91
2023/05/11 03:31:02;;;;;;;7.23;3.67;;;;;;;12.41;69.88;99505.59;6186562;23;20154;-91
2023/05/11 03:33:29;;;;;;;9.97;3.63;;;;;;;12.45;69.94;99512.38;6160294;23;20218;-91
2023/05/11 03:35:57;;;;;;;8.43;3.97;;;;;;;12.54;69.09;99506.63;6159528;23;20642;-90
2023/05/11 03:38:25;;;;;;;9.07;3.50;;;;;;;12.61;69.18;99517.63;6186648;23;20162;-91
2023/05/11 03:40:53;;;;;;;6.80;3.40;;;;;;;12.63;68.35;99513.16;6186844;23;20152;-91
2023/05/11 03:43:20;;;;;;;6.27;3.40;;;;;;;12.68;68.53;99519.03;6186495;23;20153;-90
2023/05/11 03:45:51;;;;;;;8.73;3.83;;;;;;;12.61;68.23;99513.22;6185864;23;20221;-90
2023/05/11 03:48:19;;;;;;;4.67;3.30;;;;;;;12.64;68.06;99528.00;6160012;23;20253;-91
2023/05/11 03:50:47;;;;;;;7.30;3.87;;;;;;;12.66;67.77;99526.97;6185826;23;20203;-91
2023/05/11 03:53:15;;;;;;;8.70;3.70;;;;;;;12.69;67.66;99520.69;6159878;23;20488;-91
2023/05/11 03:55:42;;;;;;;8.53;3.47;;;;;;;12.69;67.62;99526.81;6185890;23;20184;-90
2023/05/11 03:58:09;;;;;;;6.93;3.70;;;;;;;12.74;67.12;99524.78;6185937;23;20147;-90
2023/05/11 04:00:41;;;;;;;12.00;4.30;;;;;;;12.75;67.52;99526.50;6185071;23;20156;-91
2023/05/11 04:03:08;;;;;;;11.33;3.77;;;;;;;12.78;67.15;99521.06;6186373;23;20180;-91
2023/05/11 04:05:34;;;;;;;7.23;3.77;;;;;;;12.79;67.64;99519.25;6185490;23;20157;-90
2023/05/11 04:08:01;;;;;;;13.23;4.33;;;;;;;12.85;67.53;99521.56;6184465;23;20161;-90
2023/05/11 04:10:28;;;;;;;8.67;4.07;;;;;;;12.83;66.92;99528.69;6132455;23;20161;-89
2023/05/11 04:12:55;;;;;;;7.40;3.83;;;;;;;12.65;67.85;99527.94;6183637;23;20243;-91
2023/05/11 04:15:25;;;;;;;10.00;3.67;;;;;;;12.65;69.04;99529.72;6181622;23;20172;-91
2023/05/11 04:17:51;;;;;;;6.83;3.57;;;;;;;12.78;68.46;99534.22;6184291;23;20153;-90
2023/05/11 04:20:18;;;;;;;8.47;4.03;;;;;;;12.95;68.41;99533.25;6184494;23;20149;-90
2023/05/11 04:22:43;;;;;;;8.93;4.10;;;;;;;13.12;68.23;99535.00;6159716;23;20486;-91
2023/05/11 04:25:11;;;;;;;8.83;4.63;;;;;;;13.18;67.84;99537.28;6185564;23;20181;-90
2023/05/11 04:27:36;;;;;;;12.00;4.97;;;;;;;13.18;67.30;99540.75;6185610;23;20145;-90
2023/05/11 04:30:03;;;;;;;12.23;4.60;;;;;;;13.39;67.64;99536.88;6159430;23;20224;-90
2023/05/11 04:32:29;;;;;;;7.27;4.07;;;;;;;13.57;67.48;99531.50;6184812;23;20616;-90
2023/05/11 04:34:56;;;;;;;8.63;3.60;;;;;;;13.73;66.36;99533.13;6184235;23;20588;-90
2023/05/11 04:37:23;;;;;;;11.27;3.37;;;;;;;13.93;65.08;99526.69;6184833;23;20188;-90
2023/05/11 04:39:50;;;;;;;5.80;3.60;;;;;;;14.00;64.56;99523.59;6185476;23;20157;-89
2023/05/11 04:42:17;;;;;;;6.83;3.30;;;;;;;14.03;63.86;99526.03;6159192;23;20162;-90
2023/05/11 04:44:44;;;;;;;10.03;4.67;;;;;;;14.07;64.38;99542.53;6185077;23;20192;-90
2023/05/11 04:47:09;;;;;;;9.30;3.53;;;;;;;14.15;64.21;99533.19;6159390;23;20532;-90
2023/05/11 04:49:36;;;;;;;9.67;4.00;;;;;;;14.22;64.42;99528.41;6184859;23;20155;-90
2023/05/11 04:52:03;;;;;;;10.00;3.40;;;;;;;14.34;63.50;99534.75;6157422;23;20580;-90
2023/05/11 04:54:30;;;;;;;8.63;3.53;;;;;;;14.30;63.13;99533.22;6184419;23;20201;-90
2023/05/11 04:56:56;;;;;;;6.73;3.47;;;;;;;14.28;63.44;99529.84;6185009;23;20190;-92
2023/05/11 04:59:23;;;;;;;9.53;3.57;;;;;;;14.43;63.37;99537.69;6184745;23;20146;-92
2023/05/11 05:01:50;;;;;;;6.83;3.07;;;;;;;14.59;62.83;99532.28;6157092;23;20241;-92
2023/05/11 05:04:17;;;;;;;8.83;3.57;;;;;;;14.74;62.33;99531.31;6185556;23;20197;-92
2023/05/11 05:06:44;;;;;;;10.07;3.87;;;;;;;14.90;61.67;99539.13;6159630;23;20161;-92
2023/05/11 05:09:11;;;;;;;7.27;3.33;;;;;;;15.33;61.12;99541.50;6185226;23;20147;-92
2023/05/11 05:11:38;;;;;;;7.43;3.53;;;;;;;15.73;59.37;99525.69;6185432;23;20157;-91
2023/05/11 05:14:05;;;;;;;5.77;2.70;;;;;;;16.07;58.82;99525.09;6159573;23;20155;-91
2023/05/11 05:16:32;;;;;;;7.53;2.90;;;;;;;16.41;58.57;99529.75;6185140;23;20174;-92
2023/05/11 05:18:58;;;;;;;5.17;2.77;;;;;;;16.69;57.49;99533.13;6185329;23;20222;-92
2023/05/11 05:21:25;;;;;;;8.07;2.57;;;;;;;17.00;55.09;99527.31;6159647;23;20157;-92
2023/05/11 05:23:52;;;;;;;9.50;2.60;;;;;;;17.34;56.32;99534.50;6185160;23;20151;-91
2023/05/11 05:26:20;;;;;;;11.57;3.73;;;;;;;17.79;52.94;99522.28;6159235;23;20173;-92
2023/05/11 05:28:47;;;;;;;5.77;2.90;;;;;;;18.13;52.19;99520.53;6159230;23;20249;-92
2023/05/11 05:31:13;;;;;;;10.03;3.03;;;;;;;18.48;50.42;99526.63;6186721;23;20154;-92
2023/05/11 05:33:39;;;;;;;7.40;2.63;;;;;;;18.42;50.10;99522.59;6187219;23;20157;-90
2023/05/11 05:36:06;;;;;;;12.37;3.77;;;;;;;18.67;50.40;99526.88;6186850;23;20182;-91
2023/05/11 05:38:32;;;;;;;5.40;2.63;;;;;;;18.52;48.43;99520.13;6185113;23;20204;-92
2023/05/11 05:40:59;;;;;;;6.20;1.90;;;;;;;18.64;47.95;99520.94;6186839;23;20160;-91
2023/05/11 05:43:26;;;;;;;6.23;2.50;;;;;;;18.13;48.88;99526.66;6185797;23;20146;-90
2023/05/11 05:45:52;;;;;;;4.87;1.93;;;;;;;17.95;50.95;99538.69;6186213;23;20143;-91
2023/05/11 05:48:19;;;;;;;9.93;2.87;;;;;;;18.17;49.85;99528.13;6186336;23;20165;-91
2023/05/11 05:50:46;;;;;;;4.73;2.07;;;;;;;18.34;50.56;99540.09;6187025;23;20161;-91
2023/05/11 05:53:12;;;;;;;4.03;2.13;;;;;;;18.04;50.28;99539.81;6160900;23;20202;-92
2023/05/11 05:55:38;;;;;;;6.67;2.50;;;;;;;17.68;52.01;99539.00;6186094;23;20584;-91
2023/05/11 05:58:04;;;;;;;6.83;2.87;;;;;;;17.51;52.07;99549.13;6186595;23;20185;-91
2023/05/11 06:00:31;;;;;;;3.87;1.90;;;;;;;17.53;52.14;99552.56;6159864;23;20510;-91
2023/05/11 06:02:57;;;;;;;6.10;2.10;;;;;;;17.96;52.04;99547.50;6160039;23;20159;-92
2023/05/11 06:05:24;;;;;;;4.07;2.00;;;;;;;18.22;50.80;99549.00;6187073;23;20629;-92
2023/05/11 06:07:51;;;;;;;9.37;2.20;;;;;;;18.17;50.93;99540.56;6159750;23;20221;-92
2023/05/11 06:10:18;;;;;;;6.87;2.40;;;;;;;18.30;50.24;99542.16;6161059;23;20233;-92
2023/05/11 06:12:47;;;;;;;9.13;2.23;;;;;;;18.32;50.55;99542.88;6185542;23;20220;-91
2023/05/11 06:15:14;;;;;;;6.53;2.17;;;;;;;18.36;50.50;99544.34;6160527;23;20184;-91
2023/05/11 06:17:41;;;;;;;5.43;2.37;;;;;;;18.45;50.30;99547.25;6160977;23;20182;-92
2023/05/11 06:20:08;;;;;;;4.10;1.80;;;;;;;18.54;49.00;99550.03;6160173;23;20154;-90
2023/05/11 06:22:34;;;;;;;4.00;1.70;;;;;;;18.56;49.45;99558.72;6186212;23;20151;-92
2023/05/11 06:25:24;;;;;;;4.97;1.60;;;;;;;18.49;49.89;99552.22;6160407;23;20154;-91
2023/05/11 06:28:10;;;;;;;6.40;2.03;;;;;;;18.49;48.27;99543.41;6159949;23;20146;-90
2023/05/11 06:30:57;;;;;;;4.83;2.00;;;;;;;18.27;50.23;99552.16;6160040;23;20180;-90
2023/05/11 06:33:50;;;;;;;4.47;1.93;;;;;;;18.08;49.92;99555.38;6160583;23;20146;-92
2023/05/11 06:36:23;;;;;;;5.97;2.30;;;;;;;17.91;50.50;99549.66;6159703;23;20186;-92
2023/05/11 06:39:25;;;;;;;6.57;2.60;;;;;;;17.80;49.87;99555.78;6160066;23;20170;-92
2023/05/11 06:46:22;;;;;;;3.23;1.53;;;;;;;18.02;53.96;99560.31;6164585;23;20160;-91
2023/05/11 06:53:06;;;;;;;3.97;2.10;;;;;;;18.85;50.79;99549.28;6091335;23;20541;-91
2023/05/11 06:55:32;;;;;;;4.70;1.83;;;;;;;18.97;47.82;99545.66;6182312;23;20168;-92
2023/05/11 06:58:19;;;;;;;4.80;1.83;;;;;;;19.18;45.76;99542.25;6159500;23;20172;-91
2023/05/11 07:00:53;;;;;;;3.43;1.70;;;;;;;19.30;46.05;99552.72;6160612;23;20185;-91
2023/05/11 07:03:18;;;;;;;5.37;2.10;;;;;;;19.44;45.81;99552.44;6186183;23;20154;-93
2023/05/11 07:05:54;;;;;;;4.80;1.63;;;;;;;19.52;45.26;99552.66;6160199;23;20608;-93
2023/05/11 07:08:23;;;;;;;6.40;2.50;;;;;;;19.16;44.38;99547.66;6160659;23;20164;-93
2023/05/11 07:10:48;;;;;;;3.90;1.60;;;;;;;19.16;45.06;99552.13;6160088;23;20154;-93
2023/05/11 07:13:17;;;;;;;8.20;1.70;;;;;;;19.10;46.01;99549.97;6160144;23;20541;-93
2023/05/11 07:16:03;;;;;;;6.30;1.93;;;;;;;19.24;46.14;99547.03;6186282;23;20633;-93
2023/05/11 07:18:33;;;;;;;4.60;1.50;;;;;;;18.93;46.26;99554.00;6160208;23;20462;-93
2023/05/11 07:20:59;;;;;;;3.80;1.60;;;;;;;18.88;46.45;99549.06;6160300;23;20143;-92
2023/05/11 07:23:29;;;;;;;4.67;1.37;;;;;;;18.97;46.31;99547.47;6184650;23;20359;-93
2023/05/11 07:25:57;;;;;;;7.57;2.10;;;;;;;19.01;47.38;99549.75;6159005;23;20200;-95
2023/05/11 07:28:25;;;;;;;2.57;1.50;;;;;;;19.22;46.40;99548.97;6160370;23;20543;-94
2023/05/11 07:30:51;;;;;;;3.37;1.90;;;;;;;18.72;45.36;99545.94;6160649;23;20219;-93
2023/05/11 07:33:34;;;;;;;3.83;1.60;;;;;;;18.62;48.17;99544.97;6160167;23;20185;-94
2023/05/11 07:36:03;;;;;;;2.77;1.30;;;;;;;18.73;46.49;99542.31;6158335;23;20213;-94
2023/05/11 07:38:38;;;;;;;4.33;1.93;;;;;;;18.99;45.48;99541.06;6160792;23;20182;-93
2023/05/11 07:41:21;;;;;;;4.23;1.53;;;;;;;18.34;46.98;99540.09;6185785;23;20130;-94
2023/05/11 07:43:50;;;;;;;4.13;1.30;;;;;;;18.61;48.54;99537.09;6159999;23;20476;-93
2023/05/11 07:46:15;;;;;;;3.47;1.43;;;;;;;18.96;47.37;99541.31;6159892;23;20159;-93
2023/05/11 07:48:41;;;;;;;2.93;1.20;;;;;;;19.59;46.34;99532.56;6185493;23;20158;-94
2023/05/11 07:51:06;;;;;;;2.50;1.00;;;;;;;20.07;45.00;99521.44;6159561;23;20154;-92
2023/05/11 07:53:32;;;;;;;3.53;1.40;;;;;;;20.18;43.80;99521.34;6158680;23;20598;-92
2023/05/11 07:56:05;;;;;;;4.50;1.40;;;;;;;20.29;44.90;99521.28;6159523;23;20185;-94
2023/05/11 07:58:31;;;;;;;4.47;1.20;;;;;;;20.57;44.08;99525.09;6159688;23;20143;-93
2023/05/11 08:00:57;;;;;;;2.70;1.27;;;;;;;20.82;43.19;99520.13;6159488;23;20178;-94
2023/05/11 08:03:23;;;;;;;3.20;1.10;;;;;;;21.04;42.71;99521.69;6159878;23;20165;-94
2023/05/11 08:05:48;;;;;;;5.27;1.50;;;;;;;21.18;41.49;99526.69;6159798;23;20147;-91
2023/05/11 08:08:14;;;;;;;2.83;1.50;;;;;;;21.21;40.81;99526.41;6160544;23;20237;-90
2023/05/11 08:10:41;;;;;;;2.73;1.43;;;;;;;21.16;41.79;99525.13;6185331;23;20162;-91
2023/05/11 08:13:06;;;;;;;2.33;1.13;;;;;;;21.14;41.12;99519.97;6160560;23;20593;-91
2023/05/11 08:15:32;;;;;;;3.73;2.10;;;;;;;21.22;39.78;99527.25;6184777;23;20237;-93
2023/05/11 08:17:58;;;;;;;2.10;1.13;;;;;;;21.16;39.45;99517.97;6159895;23;20241;-95
2023/05/11 08:20:27;;;;;;;4.70;1.40;;;;;;;20.89;39.54;99512.41;6159593;23;20158;-95
2023/05/11 08:22:53;;;;;;;2.57;1.40;;;;;;;20.63;39.57;99516.53;6159902;23;20155;-94
2023/05/11 08:25:20;;;;;;;2.23;1.27;;;;;;;20.47;41.62;99518.84;6160012;23;20513;-94
2023/05/11 08:27:46;;;;;;;2.93;1.37;;;;;;;20.31;40.17;99515.84;6160256;23;20217;-94
2023/05/11 08:30:12;;;;;;;2.10;1.20;;;;;;;20.49;42.09;99517.75;6159929;23;20154;-94
2023/05/11 08:32:38;;;;;;;7.83;1.33;;;;;;;20.15;40.71;99509.13;6159866;23;20154;-90
2023/05/11 08:35:04;;;;;;;3.73;1.30;;;;;;;20.19;41.60;99515.91;6185854;23;20225;-94
2023/05/11 08:37:30;;;;;;;5.17;1.43;;;;;;;20.16;41.14;99515.31;6159928;23;20198;-91
2023/05/11 08:39:55;;;;;;;5.97;1.30;;;;;;;19.89;42.06;99513.19;6159925;23;20172;-94
2023/05/11 08:42:23;;;;;;;2.83;1.10;;;;;;;19.95;41.20;99501.16;6159863;23;20201;-94
2023/05/11 08:44:50;;;;;;;5.97;1.27;;;;;;;20.33;41.87;99497.91;6183434;23;20279;-91
2023/05/11 08:47:17;;;;;;;2.40;1.20;;;;;;;20.54;40.77;99501.38;6185807;23;20225;-93
2023/05/11 08:49:42;;;;;;;1.70;0.87;;;;;;;20.66;41.03;99500.28;6159070;23;20252;-92
2023/05/11 08:52:09;;;;;;;4.33;1.20;;;;;;;20.84;41.33;99486.19;6159255;23;20174;-92
2023/05/11 08:54:35;;;;;;;4.23;1.63;;;;;;;20.95;39.64;99487.03;6159909;23;20158;-93
2023/05/11 08:57:03;;;;;;;3.03;1.37;;;;;;;20.59;40.47;99493.81;6159802;23;20634;-90
2023/05/11 08:59:29;;;;;;;1.63;0.93;;;;;;;20.65;41.34;99487.97;6159732;23;20540;-90
2023/05/11 09:01:56;;;;;;;2.57;1.37;;;;;;;20.72;40.39;99491.75;6159728;23;20202;-91
2023/05/11 09:04:23;;;;;;;3.47;1.40;;;;;;;20.96;42.12;99486.91;6160507;23;20232;-91
2023/05/11 09:06:49;;;;;;;3.97;1.20;;;;;;;21.09;42.12;99486.69;6160985;23;20162;-91
2023/05/11 09:09:17;;;;;;;2.50;1.07;;;;;;;21.22;38.95;99484.59;6161630;23;20162;-90
2023/05/11 09:11:44;;;;;;;1.67;0.80;;;;;;;21.39;39.59;99482.06;6186559;23;20166;-91
2023/05/11 09:14:12;;;;;;;2.43;1.10;;;;;;;21.47;39.49;99477.84;6185735;23;20146;-91
2023/05/11 09:16:37;;;;;;;2.93;1.10;;;;;;;21.54;39.62;99473.66;6186308;23;20178;-91
2023/05/11 09:19:04;;;;;;;2.63;0.77;;;;;;;21.65;37.44;99474.31;6186343;23;20479;-93
2023/05/11 09:21:30;;;;;;;3.50;1.00;;;;;;;21.30;37.11;99474.91;6159948;23;20166;-92
2023/05/11 09:23:58;;;;;;;4.03;1.40;;;;;;;21.75;40.03;99474.34;6159984;23;20158;-93
2023/05/11 09:26:28;;;;;;;2.67;0.83;;;;;;;22.27;37.73;99473.81;6161408;23;20201;-94
2023/05/11 09:28:59;;;;;;;4.67;1.00;;;;;;;22.34;37.06;99474.91;6161506;23;20154;-95
2023/05/11 09:31:45;;;;;;;2.37;0.80;;;;;;;22.25;37.42;99473.09;6161077;23;20181;-94
2023/05/11 09:34:25;;;;;;;2.63;0.70;;;;;;;22.23;37.49;99469.72;6160747;23;20142;-94
2023/05/11 09:36:55;;;;;;;1.80;0.67;;;;;;;22.13;36.63;99457.41;6187515;23;20617;-93
2023/05/11 09:39:33;;;;;;;3.43;1.10;;;;;;;22.12;38.02;99464.56;6161179;23;20182;-93
2023/05/11 09:42:16;;;;;;;3.23;0.80;;;;;;;22.08;37.15;99454.31;6186875;23;20143;-93
2023/05/11 09:44:44;;;;;;;1.27;0.70;;;;;;;22.26;37.89;99456.09;6161339;23;20152;-94
2023/05/11 09:47:13;;;;;;;4.10;0.80;;;;;;;22.07;37.28;99456.16;6161723;23;20146;-95
2023/05/11 09:49:42;;;;;;;2.77;0.70;;;;;;;22.39;38.42;99445.91;6161359;23;20549;-94
2023/05/11 09:52:14;;;;;;;3.27;0.80;;;;;;;22.56;36.28;99446.97;6137006;23;20198;-95
2023/05/11 09:54:50;;;;;;;2.30;0.90;;;;;;;22.62;35.58;99439.22;6161481;23;20492;-95
2023/05/11 09:57:30;;;;;;;2.50;0.70;;;;;;;22.78;36.40;99435.88;6186839;23;20232;-94
2023/05/11 10:00:04;;;;;;;3.07;0.70;;;;;;;22.94;36.41;99443.22;6161202;23;20216;-94
2023/05/11 10:02:31;;;;;;;1.80;0.80;;;;;;;23.24;37.41;99438.34;6161520;23;20158;-94
2023/05/11 10:05:00;;;;;;;0.97;0.60;;;;;;;23.26;35.80;99427.50;6162019;23;20158;-96
2023/05/11 10:07:34;;;;;;;1.83;0.70;;;;;;;23.10;35.86;99435.38;6161787;23;20162;-94
2023/05/11 10:10:04;;;;;;;1.17;0.60;;;;;;;22.90;35.86;99442.72;6161317;23;20150;-94
2023/05/11 10:12:38;;;;;;;2.30;0.70;;;;;;;22.88;36.12;99443.81;6160857;23;20163;-94
2023/05/11 10:15:06;;;;;;;2.13;0.70;;;;;;;22.90;35.18;99440.03;6137615;23;20157;-95
2023/05/11 10:17:32;;;;;;;1.90;0.73;;;;;;;22.86;35.80;99435.13;6160760;23;20190;-94
2023/05/11 10:19:59;;;;;;;1.87;0.60;;;;;;;22.92;35.54;99431.84;6160973;23;20155;-95
2023/05/11 10:22:30;;;;;;;1.07;0.77;;;;;;;22.82;35.37;99425.75;6160850;23;20226;-93
2023/05/11 10:25:09;;;;;;;2.43;0.80;;;;;;;22.71;35.35;99417.94;6160625;23;20169;-94
2023/05/11 10:27:39;;;;;;;1.87;0.47;;;;;;;22.80;35.77;99409.84;6160488;23;20225;-93
2023/05/11 10:30:15;;;;;;;1.67;0.40;;;;;;;22.80;36.66;99409.03;6160818;23;20191;-94
2023/05/11 10:32:42;;;;;;;1.70;0.73;;;;;;;22.87;37.38;99400.25;6160415;23;20312;-94
2023/05/11 10:35:09;;;;;;;1.47;0.70;;;;;;;23.24;37.05;99400.09;6160446;23;20220;-94
2023/05/11 10:38:10;;;;;;;2.83;0.77;;;;;;;23.51;34.53;99397.31;6160753;23;20199;-95
2023/05/11 10:40:42;;;;;;;1.50;0.50;;;;;;;23.33;35.07;99409.00;6160964;23;20161;-95
2023/05/11 10:43:38;;;;;;;2.57;0.80;;;;;;;23.43;34.83;99407.09;6161370;23;20150;-94
2023/05/11 10:47:00;;;;;;;6.30;1.10;;;;;;;23.25;34.70;99401.75;6160568;23;20146;-93
2023/05/11 10:49:56;;;;;;;4.60;0.80;;;;;;;23.11;34.31;99399.63;6128713;23;20162;-94
2023/05/11 10:52:44;;;;;;;1.43;0.70;;;;;;;23.04;34.75;99387.84;6160476;23;20202;-94
2023/05/11 10:55:40;;;;;;;2.17;0.63;;;;;;;23.08;35.79;99386.56;6160694;23;20159;-94
2023/05/11 10:58:24;;;;;;;1.77;0.63;;;;;;;23.17;36.01;99388.31;6161540;23;20162;-94
2023/05/11 11:01:14;;;;;;;0.90;0.50;;;;;;;23.24;35.85;99382.19;6160714;23;20157;-94
2023/05/11 11:04:05;;;;;;;1.23;0.50;;;;;;;23.24;35.20;99384.84;6161027;23;20168;-96
2023/05/11 11:06:52;;;;;;;;;;;;;;;;;;;;;
2023/05/11 11:09:18;;;;;;;2.60;0.70;;;;;;;23.44;34.29;99385.56;6186931;23;20213;-94
2023/05/11 11:11:46;;;;;;;2.10;0.50;;;;;;;23.26;33.80;99392.75;6161799;23;20189;-94
2023/05/11 11:14:16;;;;;;;1.30;0.63;;;;;;;23.09;34.53;99388.22;6161296;23;20242;-95
2023/05/11 11:17:30;;;;;;;;;;;;;;;;;;;;;
2023/05/11 11:20:06;;;;;;;1.87;0.57;;;;;;;22.96;34.63;99379.75;6187200;23;20221;-95
2023/05/11 11:22:39;;;;;;;2.40;0.80;;;;;;;23.01;34.83;99382.81;6160973;23;20177;-95
2023/05/11 11:25:14;;;;;;;1.47;0.53;;;;;;;22.88;34.84;99380.50;6160647;23;20270;-95
2023/05/11 11:27:52;;;;;;;;;;;;;;;;;;;;;
2023/05/11 11:30:23;;;;;;;1.20;0.50;;;;;;;22.73;35.04;99379.38;6186495;23;20576;-93
2023/05/11 11:32:51;;;;;;;1.23;0.60;;;;;;;22.87;35.17;99378.84;6160317;23;20511;-95
2023/05/11 11:35:41;;;;;;;2.27;0.47;;;;;;;23.17;34.16;99372.25;6161198;23;20169;-95
2023/05/11 11:38:09;;;;;;;3.23;1.30;;;;;;;23.03;34.76;99378.16;6160782;23;20194;-96
2023/05/11 11:40:36;;;;;;;1.33;0.60;;;;;;;23.03;34.41;99371.00;6160752;23;20158;-95
2023/05/11 11:43:17;;;;;;;0.67;0.40;;;;;;;23.08;35.17;99371.38;6160836;23;20185;-94
2023/05/11 11:46:24;;;;;;;2.30;0.70;;;;;;;23.10;35.04;99372.03;6156526;23;20158;-95
2023/05/11 11:48:50;;;;;;;1.07;0.40;;;;;;;22.90;34.21;99362.50;6160562;23;20245;-95
2023/05/11 11:51:17;;;;;;;3.47;0.87;;;;;;;22.97;34.26;99365.41;6160270;23;20492;-93
2023/05/11 11:53:48;;;;;;;1.23;0.50;;;;;;;22.95;34.02;99354.03;6159359;23;20165;-94
2023/05/11 11:56:13;;;;;;;0.90;0.50;;;;;;;23.06;34.31;99345.78;6158074;23;20582;-94
2023/05/11 11:58:42;;;;;;;1.40;0.50;;;;;;;23.18;33.77;99342.69;6160188;23;20216;-94